Aérodrome :
LOGIN :

S'inscrire | Disclaimer

   EN    FR    IT 

 










Légende :    VFR   VFR Marginal   IFR   IFR Intensif   IFR Très Intensif
Visi : 
Plafond : 
>= 8 km
>= 3000ft
5 à 8 km
1000 à 3000 ft
1500m à 5 km
500 à 1000 ft
800 à 1500m
200 à 500 ft
< 800m
< 200 ft
Symboles :   Orages  Brouillard  Fortes neiges  Fortes précipitations  Vent > 20 kt
SIGMETs :   Divers  Orages  Givrage  Turbulence  Onde Orograph.  Cendres Volcan.







- Altitude de l'aérodrome : 782 ft
- Code IATA : BGY


LIME - Orio al Serio International - Bergamo

DERNIER METAR :
  • 281020Z 15007KT 120V220 9999 SCT025TCU SCT035 26/18 Q1003 NOSIG

METARs EXPIRÉS :
  • 280950Z 15009KT 100V180 9999 SCT035 BKN070 26/18 Q1003 NOSIG
  • 280920Z 14009KT 100V170 9999 SCT035 BKN060 26/18 Q1003 NOSIG
  • 280850Z 15007KT 110V190 9999 SCT035 BKN080 26/18 Q1003 NOSIG
  • 280820Z 14009KT 120V190 9999 SCT035 BKN080 25/18 Q1004 NOSIG
  • 280750Z 13011KT 9999 SCT035 BKN080 25/18 Q1004 NOSIG

TAF TAF LIME
Valide du 28 à 06h jusqu'au 29 à 06h UTC


280500Z 2806/2906 12007KT 9999 BKN050
TEMPO 2806/2903 VRB15G25KT 3000 TSRA BKN010CB
TEMPO 2903/2906 3500 BR
Pas de NOTAMs connus pour ce terrain.
1 SIGMET publié pour la FIR Milano (LIMM) :
 
Orages noyés dans la masse
LIMM SIGMET 3 VALID 280650/281050 LIMM- LIMM MILANO FIR EMBD TS FCST N OF LINE N4347 E00717 - N4415 E00818 - N4507 E00824 - N4525 E00924 - N4539 E01118 - N4559 E01227 - N4609 E01340 - N4347 E00717 TOP FL400 MOV NE NC=



MET'MAP, la Météo Aéronautique d'un coup d'oeil ! - Copyright ORBIFLY Décembre 2007 - Disclaimer

ORBIFLY MET'MAP TEAM :

Programmation & Développement : Alexandra Zaïnal
Conception & Développement : Baudouin d'Aumeries
Co-Programmation & Développement : Marc-Olivier Méhu
Soutien technique & logistique : Manuel Goepfert

Contact : metmap@orbifly.com




SOURCES & CREDITS :

   NOAA